createdAt,value
2016-06-18T00:00:47.491Z,62.26
2016-06-18T00:01:47.527Z,62.45
2016-06-18T00:02:47.561Z,62.54
2016-06-18T00:03:48.190Z,62.35
2016-06-18T00:04:47.599Z,62.45
2016-06-18T00:05:47.650Z,62.45
2016-06-18T00:06:47.653Z,61.87
2016-06-18T00:07:47.657Z,62.35
2016-06-18T00:08:47.691Z,62.26
2016-06-18T00:09:47.726Z,62.45
2016-06-18T00:10:47.746Z,62.26
2016-06-18T00:11:47.780Z,62.45
2016-06-18T00:12:47.800Z,62.74
2016-06-18T00:13:47.818Z,62.83
2016-06-18T00:14:47.837Z,62.54
2016-06-18T00:15:47.887Z,62.54
2016-06-18T00:16:47.907Z,62.83
2016-06-18T00:17:47.925Z,62.74
2016-06-18T00:18:47.960Z,62.35
2016-06-18T00:19:47.979Z,62.16
2016-06-18T00:20:48.014Z,62.45
2016-06-18T00:21:48.034Z,62.93
2016-06-18T00:22:48.053Z,62.74
2016-06-18T00:23:48.088Z,62.45
2016-06-18T00:24:48.106Z,62.45
2016-06-18T00:25:48.750Z,62.74
2016-06-18T00:26:48.301Z,63.02
2016-06-18T00:27:48.195Z,62.64
2016-06-18T00:28:48.214Z,62.26
2016-06-18T00:29:48.248Z,62.45
2016-06-18T00:30:48.267Z,62.54
2016-06-18T00:31:48.288Z,62.35
2016-06-18T00:32:48.321Z,62.54
2016-06-18T00:33:48.341Z,62.83
2016-06-18T00:34:48.375Z,62.83
2016-06-18T00:35:49.051Z,62.45
2016-06-18T00:36:48.430Z,62.35
2016-06-18T00:37:48.480Z,62.64
2016-06-18T00:38:48.467Z,62.74
2016-06-18T00:39:48.502Z,62.26
2016-06-18T00:40:48.536Z,62.64
2016-06-18T00:41:48.556Z,62.16
2016-06-18T00:42:48.576Z,62.83
2016-06-18T00:43:48.610Z,62.45
2016-06-18T00:44:48.629Z,62.74
2016-06-18T00:45:48.647Z,63.02
2016-06-18T00:46:48.682Z,62.35
2016-06-18T00:47:48.873Z,62.64
2016-06-18T00:48:48.736Z,62.54
2016-06-18T00:49:48.755Z,62.64
2016-06-18T00:50:48.789Z,63.12
2016-06-18T00:51:48.810Z,62.54
2016-06-18T00:52:48.828Z,63.02
2016-06-18T00:53:48.863Z,62.45
2016-06-18T00:54:48.898Z,63.12
2016-06-18T00:55:48.901Z,62.35
2016-06-18T00:56:48.936Z,63.02
2016-06-18T00:57:48.970Z,63.12
2016-06-18T00:58:48.990Z,63.02
2016-06-18T00:59:49.024Z,62.26
2016-06-18T01:00:49.044Z,62.54
2016-06-18T01:01:49.063Z,62.54
2016-06-18T01:02:49.097Z,62.93
2016-06-18T01:03:49.132Z,62.35
2016-06-18T01:04:49.760Z,62.74
2016-06-18T01:05:49.166Z,63.02
2016-06-18T01:06:49.186Z,62.35
2016-06-18T01:07:49.220Z,62.74
2016-06-18T01:08:49.240Z,63.12
2016-06-18T01:09:49.274Z,63.12
2016-06-18T01:10:49.293Z,62.64
2016-06-18T01:11:49.328Z,63.02
2016-06-18T01:12:49.348Z,62.54
2016-06-18T01:13:49.382Z,62.64
2016-06-18T01:14:49.401Z,62.26
2016-06-18T01:15:49.436Z,62.74
2016-06-18T01:16:49.454Z,62.74
2016-06-18T01:17:49.474Z,62.45
2016-06-18T01:18:49.508Z,63.12
2016-06-18T01:19:49.528Z,63.22
2016-06-18T01:20:49.562Z,63.02
2016-06-18T01:21:49.582Z,62.64
2016-06-18T01:22:50.225Z,62.74
2016-06-18T01:23:49.635Z,62.54
2016-06-18T01:24:49.671Z,62.93
2016-06-18T01:25:49.688Z,62.93
2016-06-18T01:26:50.333Z,62.54
2016-06-18T01:27:49.743Z,62.45
2016-06-18T01:28:49.762Z,62.74
2016-06-18T01:29:49.796Z,62.54
2016-06-18T01:30:49.816Z,62.74
2016-06-18T01:31:49.851Z,62.45
2016-06-18T01:32:49.870Z,62.83
2016-06-18T01:33:49.905Z,62.83
2016-06-18T01:34:49.924Z,62.83
2016-06-18T01:35:49.942Z,62.74
2016-06-18T01:36:49.976Z,63.02
2016-06-18T01:37:49.996Z,63.02
2016-06-18T01:38:50.016Z,62.35
2016-06-18T01:39:50.050Z,63.02
2016-06-18T01:40:50.070Z,62.35
2016-06-18T01:41:50.104Z,62.26
2016-06-18T01:42:50.123Z,62.74
2016-06-18T01:43:50.158Z,62.74
2016-06-18T01:44:50.176Z,62.26
2016-06-18T01:45:50.196Z,62.54
2016-06-18T01:46:50.231Z,62.45
2016-06-18T01:47:50.250Z,62.45
2016-06-18T01:48:50.284Z,62.74
2016-06-18T01:49:50.304Z,62.83
2016-06-18T01:50:50.339Z,62.35
2016-06-18T01:51:50.357Z,62.64
2016-06-18T01:52:50.376Z,62.54
2016-06-18T01:53:50.474Z,62.45
2016-06-18T01:54:50.433Z,62.45
2016-06-18T01:55:50.470Z,62.26
2016-06-18T01:56:50.492Z,62.26
2016-06-18T01:57:50.530Z,62.54
2016-06-18T01:58:50.553Z,62.35
2016-06-18T01:59:50.698Z,63.02
2016-06-18T02:00:50.609Z,62.93
2016-06-18T02:01:50.645Z,62.83
2016-06-18T02:02:50.666Z,63.22
2016-06-18T02:03:50.685Z,62.93
2016-06-18T02:04:50.720Z,62.93
2016-06-18T02:05:50.740Z,62.45
2016-06-18T02:06:50.932Z,62.74
2016-06-18T02:07:50.795Z,62.35
2016-06-18T02:08:50.815Z,62.93
2016-06-18T02:09:50.850Z,63.12
2016-06-18T02:10:50.868Z,62.74
2016-06-18T02:11:50.904Z,63.02
2016-06-18T02:12:50.923Z,62.93
2016-06-18T02:13:50.943Z,62.93
2016-06-18T02:14:50.977Z,63.12
2016-06-18T02:15:50.997Z,62.83
2016-06-18T02:16:51.031Z,63.02
2016-06-18T02:17:51.051Z,63.02
2016-06-18T02:18:51.085Z,63.02
2016-06-18T02:19:51.135Z,62.93
2016-06-18T02:20:51.123Z,62.93
2016-06-18T02:21:51.157Z,63.41
2016-06-18T02:22:51.193Z,62.93
2016-06-18T02:23:51.211Z,63.02
2016-06-18T02:24:51.231Z,63.02
2016-06-18T02:25:51.265Z,62.93
2016-06-18T02:26:51.441Z,62.83
2016-06-18T02:27:51.319Z,63.12
2016-06-18T02:28:51.338Z,63.22
2016-06-18T02:29:51.404Z,63.02
2016-06-18T02:30:51.393Z,63.12
2016-06-18T02:31:51.427Z,63.02
2016-06-18T02:32:51.478Z,62.61
2016-06-18T02:33:51.465Z,62.74
2016-06-18T02:34:51.499Z,63.02
2016-06-18T02:35:51.581Z,62.93
2016-06-18T02:36:51.539Z,62.83
2016-06-18T02:37:51.572Z,63.02
2016-06-18T02:38:52.388Z,62.35
2016-06-18T02:39:51.627Z,63.12
2016-06-18T02:40:51.646Z,63.12
2016-06-18T02:41:51.680Z,62.83
2016-06-18T02:42:51.715Z,62.93
2016-06-18T02:43:51.718Z,63.12
2016-06-18T02:44:51.753Z,63.02
2016-06-18T02:45:51.788Z,62.54
2016-06-18T02:46:51.806Z,62.99
2016-06-18T02:47:51.826Z,63.12
2016-06-18T02:48:51.861Z,63.22
2016-06-18T02:49:52.505Z,62.64
2016-06-18T02:50:51.898Z,63.02
2016-06-18T02:51:51.933Z,63.02
2016-06-18T02:52:51.969Z,63.41
2016-06-18T02:53:51.987Z,63.18
2016-06-18T02:54:52.021Z,63.57
2016-06-18T02:55:52.041Z,62.99
2016-06-18T02:56:52.060Z,63.02
2016-06-18T02:57:52.126Z,62.64
2016-06-18T02:58:52.115Z,62.93
2016-06-18T02:59:52.164Z,62.93
2016-06-18T03:00:52.167Z,63.22
2016-06-18T03:01:52.281Z,62.83
2016-06-18T03:02:52.221Z,63.02
2016-06-18T03:03:52.241Z,62.64
2016-06-18T03:04:52.260Z,62.54
2016-06-18T03:05:52.294Z,62.93
2016-06-18T03:06:52.329Z,63.02
2016-06-18T03:07:52.349Z,63.22
2016-06-18T03:08:52.367Z,62.93
2016-06-18T03:09:52.402Z,62.35
2016-06-18T03:10:52.421Z,62.74
2016-06-18T03:11:52.440Z,62.54
2016-06-18T03:12:53.084Z,62.74
2016-06-18T03:13:52.541Z,62.54
2016-06-18T03:14:52.528Z,63.02
2016-06-18T03:15:52.548Z,62.93
2016-06-18T03:16:53.223Z,63.12
2016-06-18T03:17:52.601Z,63.12
2016-06-18T03:18:52.637Z,62.83
2016-06-18T03:19:52.655Z,62.93
2016-06-18T03:20:52.690Z,62.93
2016-06-18T03:21:52.709Z,63.02
2016-06-18T03:22:52.744Z,62.74
2016-06-18T03:23:53.371Z,62.54
2016-06-18T03:24:52.782Z,63.12
2016-06-18T03:25:52.817Z,63.22
2016-06-18T03:26:53.461Z,62.74
2016-06-18T03:27:53.479Z,63.12
2016-06-18T03:28:53.499Z,62.54
2016-06-18T03:29:53.533Z,63.12
2016-06-18T03:30:52.943Z,62.83
2016-06-18T03:31:52.963Z,62.83
2016-06-18T03:32:52.981Z,62.93
2016-06-18T03:33:53.016Z,63.02
2016-06-18T03:34:53.035Z,62.93
2016-06-18T03:35:53.071Z,63.6
2016-06-18T03:36:53.088Z,62.74
2016-06-18T03:37:53.124Z,62.35
2016-06-18T03:38:53.143Z,63.12
2016-06-18T03:39:53.177Z,62.93
2016-06-18T03:40:53.197Z,62.54
2016-06-18T03:41:53.216Z,62.35
2016-06-18T03:42:53.250Z,62.64
2016-06-18T03:43:53.332Z,63.12
2016-06-18T03:44:53.289Z,62.45
2016-06-18T03:45:53.323Z,62.93
2016-06-18T03:46:53.342Z,62.35
2016-06-18T03:47:53.377Z,62.35
2016-06-18T03:48:53.396Z,63.02
2016-06-18T03:49:53.431Z,63.02
2016-06-18T03:50:53.450Z,63.12
2016-06-18T03:51:53.485Z,63.02
2016-06-18T03:52:53.504Z,63.02
2016-06-18T03:53:53.539Z,62.93
2016-06-18T03:54:53.558Z,63.22
2016-06-18T03:55:53.592Z,63.12
2016-06-18T03:56:53.611Z,62.74
2016-06-18T03:57:53.630Z,62.83
2016-06-18T03:58:53.665Z,63.12
2016-06-18T03:59:53.840Z,62.45
2016-06-18T04:00:53.719Z,63.12
2016-06-18T04:01:54.347Z,63.02
2016-06-18T04:02:54.398Z,63.02
2016-06-18T04:03:53.792Z,62.83
2016-06-18T04:04:53.811Z,63.22
2016-06-18T04:05:53.830Z,62.54
2016-06-18T04:06:53.864Z,62.26
2016-06-18T04:07:53.884Z,62.93
2016-06-18T04:08:53.919Z,62.93
2016-06-18T04:09:53.938Z,63.02
2016-06-18T04:10:53.958Z,62.54
2016-06-18T04:11:54.000Z,62.83
2016-06-18T04:12:54.041Z,62.26
2016-06-18T04:13:54.066Z,62.64
2016-06-18T04:14:54.106Z,62.54
2016-06-18T04:15:54.130Z,62.64
2016-06-18T04:16:54.152Z,62.45
2016-06-18T04:17:54.189Z,62.83
2016-06-18T04:18:54.210Z,62.64
2016-06-18T04:19:54.231Z,62.74
2016-06-18T04:20:54.268Z,62.74
2016-06-18T04:21:54.288Z,62.83
2016-06-18T04:22:54.323Z,62.93
2016-06-18T04:23:54.344Z,62.54
2016-06-18T04:24:54.378Z,62.83
2016-06-18T04:25:54.414Z,62.26
2016-06-18T04:26:54.418Z,62.54
2016-06-18T04:27:54.454Z,62.54
2016-06-18T04:28:54.473Z,62.54
2016-06-18T04:29:54.508Z,62.74
2016-06-18T04:30:55.152Z,62.54
2016-06-18T04:31:54.562Z,62.54
2016-06-18T04:32:54.580Z,63.02
2016-06-18T04:33:54.600Z,62.74
2016-06-18T04:34:54.634Z,62.64
2016-06-18T04:35:54.654Z,62.45
2016-06-18T04:36:54.736Z,62.83
2016-06-18T04:37:54.707Z,62.83
2016-06-18T04:38:54.742Z,62.83
2016-06-18T04:39:54.762Z,62.93
2016-06-18T04:40:54.827Z,62.74
2016-06-18T04:41:54.814Z,62.45
2016-06-18T04:42:54.834Z,62.26
2016-06-18T04:43:54.868Z,62.16
2016-06-18T04:44:54.888Z,62.35
2016-06-18T04:45:54.923Z,62.45
2016-06-18T04:46:55.661Z,62.35
2016-06-18T04:47:54.960Z,62.45
2016-06-18T04:48:54.996Z,61.87
2016-06-18T04:49:55.014Z,62.74
2016-06-18T04:50:55.050Z,62.45
2016-06-18T04:51:55.068Z,62.45
2016-06-18T04:52:55.088Z,62.35
2016-06-18T04:53:55.278Z,62.16
2016-06-18T04:54:55.156Z,62.35
2016-06-18T04:55:55.176Z,62.74
2016-06-18T04:56:55.195Z,62.45
2016-06-18T04:57:55.245Z,62.74
2016-06-18T04:58:55.248Z,62.74
2016-06-18T04:59:55.284Z,62.26
2016-06-18T05:00:55.302Z,61.58
2016-06-18T05:01:55.337Z,61.19
2016-06-18T05:02:55.356Z,62.35
2016-06-18T05:03:55.391Z,62.35
2016-06-18T05:04:55.410Z,62.26
2016-06-18T05:05:55.430Z,62.64
2016-06-18T05:06:55.464Z,61.68
2016-06-18T05:07:55.623Z,61.87
2016-06-18T05:08:55.518Z,61.87
2016-06-18T05:09:55.522Z,61.58
2016-06-18T05:10:55.555Z,61.68
2016-06-18T05:11:55.590Z,61.87
2016-06-18T05:12:55.610Z,61.39
2016-06-18T05:13:55.630Z,61.58
2016-06-18T05:14:55.663Z,61.49
2016-06-18T05:15:56.307Z,61.68
2016-06-18T05:16:55.717Z,61.68
2016-06-18T05:17:55.736Z,61.68
2016-06-18T05:18:55.772Z,61.52
2016-06-18T05:19:56.430Z,61.49
2016-06-18T05:20:55.981Z,61.29
2016-06-18T05:21:55.844Z,61.68
2016-06-18T05:22:55.878Z,61.97
2016-06-18T05:23:55.976Z,61.87
2016-06-18T05:24:55.918Z,61.68
2016-06-18T05:25:55.951Z,61.29
2016-06-18T05:26:55.970Z,61.68
2016-06-18T05:27:56.006Z,61.58
2016-06-18T05:28:56.649Z,61.49
2016-06-18T05:29:56.668Z,61.58
2016-06-18T05:30:56.078Z,61.49
2016-06-18T05:31:56.112Z,61.77
2016-06-18T05:32:56.132Z,61.68
2016-06-18T05:33:56.167Z,61.8
2016-06-18T05:34:56.185Z,61.49
2016-06-18T05:35:56.220Z,61.68
2016-06-18T05:36:56.302Z,61.77
2016-06-18T05:37:56.258Z,61.87
2016-06-18T05:38:56.293Z,61.87
2016-06-18T05:39:56.312Z,61.68
2016-06-18T05:40:56.332Z,61.58
2016-06-18T05:41:56.366Z,61.87
2016-06-18T05:42:56.401Z,61.68
2016-06-18T05:43:56.420Z,61.77
2016-06-18T05:44:56.439Z,61.87
2016-06-18T05:45:56.474Z,61.49
2016-06-18T05:46:56.493Z,61.58
2016-06-18T05:47:56.512Z,61.58
2016-06-18T05:48:56.546Z,61.49
2016-06-18T05:49:56.582Z,61.49
2016-06-18T05:50:56.600Z,61.19
2016-06-18T05:51:56.636Z,61.49
2016-06-18T05:52:56.654Z,61.58
2016-06-18T05:53:56.673Z,61.39
2016-06-18T05:54:56.708Z,61.49
2016-06-18T05:55:56.727Z,61.58
2016-06-18T05:56:56.762Z,61.68
2016-06-18T05:57:56.782Z,61.68
2016-06-18T05:58:57.472Z,61.77
2016-06-18T05:59:57.459Z,61.68
2016-06-18T06:00:56.854Z,61.39
2016-06-18T06:01:56.888Z,61.04
2016-06-18T06:02:56.908Z,61.13
2016-06-18T06:03:56.942Z,60.94
2016-06-18T06:04:56.961Z,61.8
2016-06-18T06:05:56.980Z,61.71
2016-06-18T06:06:57.016Z,61.71
2016-06-18T06:07:57.034Z,61.9
2016-06-18T06:08:57.100Z,61.49
2016-06-18T06:09:57.104Z,61.68
2016-06-18T06:10:57.732Z,61.42
2016-06-18T06:11:57.142Z,61.22
2016-06-18T06:12:57.161Z,61.32
2016-06-18T06:13:57.195Z,61.8
2016-06-18T06:14:57.215Z,61.1
2016-06-18T06:15:57.249Z,61.32
2016-06-18T06:16:57.268Z,61.42
2016-06-18T06:17:57.304Z,61.42
2016-06-18T06:18:57.322Z,60.65
2016-06-18T06:19:57.357Z,61.22
2016-06-18T06:20:57.376Z,60.84
2016-06-18T06:21:57.410Z,60.94
2016-06-18T06:22:57.429Z,61.22
2016-06-18T06:23:57.449Z,60.94
2016-06-18T06:24:57.483Z,61.22
2016-06-18T06:25:57.504Z,60.94
2016-06-18T06:26:57.538Z,61.13
2016-06-18T06:27:57.557Z,61.22
2016-06-18T06:28:57.578Z,60.65
2016-06-18T06:29:57.612Z,61.13
2016-06-18T06:30:57.649Z,61.22
2016-06-18T06:31:57.668Z,61.13
2016-06-18T06:32:57.688Z,60.75
2016-06-18T06:33:57.723Z,61.04
2016-06-18T06:34:57.742Z,61.32
2016-06-18T06:35:57.777Z,61.32
2016-06-18T06:36:57.797Z,61.42
2016-06-18T06:37:57.831Z,61.13
2016-06-18T06:38:57.849Z,61
2016-06-18T06:39:57.885Z,61.13
2016-06-18T06:40:57.904Z,61.22
2016-06-18T06:41:57.940Z,61.32
2016-06-18T06:42:57.957Z,61.42
2016-06-18T06:43:58.149Z,61.04
2016-06-18T06:44:58.011Z,60.65
2016-06-18T06:45:58.046Z,61.13
2016-06-18T06:46:58.238Z,60.84
2016-06-18T06:47:58.116Z,60.55
2016-06-18T06:48:58.103Z,60.75
2016-06-18T06:49:58.138Z,60.94
2016-06-18T06:50:58.174Z,60.36
2016-06-18T06:51:58.192Z,59.88
2016-06-18T06:52:58.212Z,59.97
2016-06-18T06:53:58.245Z,60.36
2016-06-18T06:54:58.265Z,59.78
2016-06-18T06:55:58.300Z,60
2016-06-18T06:56:58.334Z,59.91
2016-06-18T06:57:58.354Z,59.72
2016-06-18T06:58:58.373Z,59.91
2016-06-18T06:59:58.391Z,59.88
2016-06-18T07:00:58.426Z,59.33
2016-06-18T07:01:58.446Z,59.33
2016-06-18T07:02:58.480Z,59.33
2016-06-18T07:03:58.500Z,59.91
2016-06-18T07:04:58.533Z,58.85
2016-06-18T07:05:58.553Z,58.08
2016-06-18T07:06:58.588Z,58.01
2016-06-18T07:07:58.607Z,57.43
2016-06-18T07:08:58.642Z,57.24
2016-06-18T07:09:58.661Z,57.72
2016-06-18T07:10:58.679Z,57.14
2016-06-18T07:11:58.714Z,56.3
2016-06-18T07:12:58.750Z,55.05
2016-06-18T07:13:58.784Z,54.21
2016-06-18T07:14:58.804Z,54.24
2016-06-18T07:15:58.821Z,54.72
2016-06-18T07:16:58.841Z,55.56
2016-06-18T07:17:58.875Z,55.46
2016-06-18T07:18:58.895Z,55.44
2016-06-18T07:19:58.930Z,55.54
2016-06-18T07:20:58.950Z,55.54
2016-06-18T07:21:58.983Z,55.73
2016-06-18T07:22:59.018Z,55.34
2016-06-18T07:23:59.037Z,56.01
2016-06-18T07:24:59.072Z,55.44
2016-06-18T07:25:59.091Z,55.05
2016-06-18T07:26:59.126Z,55.08
2016-06-18T07:27:59.755Z,54.5
2016-06-18T07:28:59.179Z,54.4
2016-06-18T07:29:59.198Z,53.75
2016-06-18T07:30:59.842Z,53.56
2016-06-18T07:31:59.252Z,53.85
2016-06-18T07:32:59.287Z,53.95
2016-06-18T07:33:59.322Z,53.37
2016-06-18T07:34:59.341Z,53.56
2016-06-18T07:35:59.376Z,53.75
2016-06-18T07:36:59.426Z,53.75
2016-06-18T07:37:59.445Z,52.79
2016-06-18T07:38:59.448Z,52.69
2016-06-18T07:39:59.483Z,52.89
2016-06-18T07:40:59.502Z,51.85
2016-06-18T07:41:59.584Z,51.75
2016-06-18T07:42:59.556Z,51.65
2016-06-18T07:43:59.590Z,51.1
2016-06-18T07:44:59.625Z,50.23
2016-06-18T07:45:59.644Z,49.49
2016-06-18T07:46:59.679Z,48.83
2016-06-18T07:47:59.699Z,47.77
2016-06-18T07:48:59.733Z,46.56
2016-06-18T07:49:59.752Z,47.24
2016-06-18T07:50:59.787Z,48.57
2016-06-18T07:51:59.822Z,48.83
2016-06-18T07:52:59.840Z,48.83
2016-06-18T07:53:59.859Z,49.02
2016-06-18T07:54:59.894Z,48.74
2016-06-18T07:55:59.929Z,48.83
2016-06-18T07:56:59.948Z,49.22
2016-06-18T07:57:59.983Z,49.51
2016-06-18T07:59:00.002Z,49.6
2016-06-18T08:00:00.037Z,49.58
2016-06-18T08:01:00.071Z,49.58
2016-06-18T08:02:00.091Z,49
2016-06-18T08:03:00.125Z,49.02
2016-06-18T08:04:00.160Z,48.35
2016-06-18T08:05:00.179Z,47.79
2016-06-18T08:06:00.214Z,48.18
2016-06-18T08:07:00.248Z,48.18
2016-06-18T08:08:00.298Z,47.99
2016-06-18T08:09:00.286Z,48.06
2016-06-18T08:10:00.321Z,48.66
2016-06-18T08:11:00.356Z,48.64
2016-06-18T08:12:00.375Z,48.74
2016-06-18T08:13:00.410Z,48.83
2016-06-18T08:14:00.445Z,48.35
2016-06-18T08:15:00.463Z,48.16
2016-06-18T08:16:01.140Z,48.25
2016-06-18T08:17:00.517Z,48.08
2016-06-18T08:18:00.552Z,48.37
2016-06-18T08:19:00.570Z,48.18
2016-06-18T08:20:00.607Z,48.25
2016-06-18T08:21:00.641Z,48.18
2016-06-18T08:22:00.660Z,48.08
2016-06-18T08:23:00.694Z,47.89
2016-06-18T08:24:00.729Z,47.41
2016-06-18T08:25:00.748Z,47.02
2016-06-18T08:26:00.783Z,45.86
2016-06-18T08:27:00.803Z,45.68
2016-06-18T08:28:00.837Z,46.75
2016-06-18T08:29:00.855Z,47.24
2016-06-18T08:30:00.890Z,47.41
2016-06-18T08:31:00.941Z,47.5
2016-06-18T08:32:00.945Z,47.41
2016-06-18T08:33:00.979Z,46.63
2016-06-18T08:34:01.014Z,46.83
2016-06-18T08:35:01.033Z,46.26
2016-06-18T08:36:01.067Z,46.08
2016-06-18T08:37:01.087Z,46.36
2016-06-18T08:38:01.121Z,46.56
2016-06-18T08:39:01.140Z,47.5
2016-06-18T08:40:01.175Z,47.5
2016-06-18T08:41:01.210Z,47.77
2016-06-18T08:42:01.229Z,48.27
2016-06-18T08:43:01.263Z,48.06
2016-06-18T08:44:02.269Z,47.58
2016-06-18T08:47:09.734Z,47.69
2016-06-18T08:47:33.375Z,48.64
2016-06-18T08:48:33.398Z,48.74
2016-06-18T08:49:33.450Z,48.93
2016-06-18T08:50:33.455Z,49.12
2016-06-18T08:51:33.492Z,49.58
2016-06-18T08:52:33.528Z,48.9
2016-06-18T08:53:33.549Z,48.64
2016-06-18T08:54:33.583Z,49.02
2016-06-18T08:55:33.603Z,48.74
2016-06-18T08:56:33.638Z,48.83
2016-06-18T08:57:33.673Z,49.58
2016-06-18T08:58:33.693Z,49.77
2016-06-18T08:59:33.728Z,49.1
2016-06-18T09:00:33.746Z,49.29
2016-06-18T09:01:33.798Z,49.19
2016-06-18T09:02:34.427Z,49.58
2016-06-18T09:03:33.851Z,49.29
2016-06-18T09:04:33.871Z,49.29
2016-06-18T09:05:34.515Z,49.19
2016-06-18T09:06:33.925Z,49.19
2016-06-18T09:07:33.959Z,48.81
2016-06-18T09:08:33.994Z,48.9
2016-06-18T09:09:34.014Z,49.41
2016-06-18T09:10:34.048Z,48.83
2016-06-18T09:11:34.098Z,49.12
2016-06-18T09:12:34.118Z,48.9
2016-06-18T09:13:34.137Z,49.58
2016-06-18T09:14:34.156Z,49.1
2016-06-18T09:15:34.237Z,49.29
2016-06-18T09:16:34.210Z,49.58
2016-06-18T09:17:34.261Z,49.68
2016-06-18T09:20:10.910Z,49.77
2016-06-18T09:21:10.991Z,49.77
2016-06-18T09:22:11.009Z,49.39
2016-06-18T09:23:11.076Z,49.68
2016-06-18T09:24:11.064Z,49.49
2016-06-18T09:25:11.708Z,49.49
2016-06-18T09:26:11.742Z,49.39
2016-06-18T09:27:11.137Z,49.49
2016-06-18T09:28:11.813Z,50.16
2016-06-18T09:29:11.206Z,50.16
2016-06-18T09:31:11.229Z,50.13
2016-06-18T09:32:11.264Z,50.62
2016-06-18T09:33:11.283Z,50.23
2016-06-18T09:34:11.317Z,51.1
2016-06-18T09:35:11.368Z,50.33
2016-06-18T09:36:11.371Z,50.43
2016-06-18T09:37:11.405Z,50.91
2016-06-18T09:38:11.425Z,50.43
2016-06-18T09:39:11.460Z,50.23
2016-06-18T09:40:11.494Z,50.43
2016-06-18T09:41:11.514Z,50.04
2016-06-18T09:42:11.548Z,50.43
2016-06-18T09:43:11.568Z,50.33
2016-06-18T09:44:11.601Z,50.04
2016-06-18T09:45:11.652Z,50.16
2016-06-18T09:46:12.281Z,49.19
2016-06-18T09:47:11.690Z,49.58
2016-06-18T09:48:11.709Z,49.68
2016-06-18T09:49:11.744Z,49.39
2016-06-18T09:50:12.435Z,49.29
2016-06-18T09:51:11.798Z,49.49
2016-06-18T09:52:12.458Z,49.68
2016-06-18T09:53:11.852Z,49.29
2016-06-18T09:54:11.886Z,49.1
2016-06-18T09:55:11.921Z,49.68
2016-06-18T09:56:11.940Z,49.58
2016-06-18T09:57:12.585Z,49.19
2016-06-18T09:58:12.010Z,49
2016-06-18T09:59:12.028Z,49.29
2016-06-18T10:00:12.063Z,48.83
2016-06-18T10:01:12.379Z,48.9
2016-06-18T10:02:12.555Z,48.83
2016-06-18T10:03:12.152Z,49.02
2016-06-18T10:04:12.171Z,49.12
2016-06-18T10:05:12.205Z,49.02
2016-06-18T10:06:12.225Z,49.02
2016-06-18T10:07:12.259Z,48.93
2016-06-18T10:08:12.295Z,48.64
2016-06-18T10:09:12.314Z,48.83
2016-06-18T10:10:12.348Z,48.25
2016-06-18T10:11:12.367Z,48.16
2016-06-18T10:12:12.402Z,48.16
2016-06-18T10:13:12.437Z,48.44
2016-06-18T10:14:12.455Z,48.18
2016-06-18T10:15:12.505Z,48.25
2016-06-18T10:16:12.806Z,48.44
2016-06-18T10:17:12.544Z,48.54
2016-06-18T10:18:12.579Z,48.44
2016-06-18T10:19:12.598Z,48.64
2016-06-18T10:20:12.633Z,48.83
2016-06-18T10:21:12.652Z,48.64
2016-06-18T10:22:12.686Z,48.83
2016-06-18T10:23:12.722Z,48.64
2016-06-18T10:24:12.740Z,48.64
2016-06-18T10:25:12.806Z,48.64
2016-06-18T10:26:12.809Z,48.54
2016-06-18T10:27:12.829Z,48.74
2016-06-18T10:28:12.863Z,49.02
2016-06-18T10:29:12.882Z,48.83
2016-06-18T10:30:12.917Z,48.93
2016-06-18T10:31:12.952Z,49.32
2016-06-18T10:32:12.971Z,48.81
2016-06-18T10:33:13.006Z,49.1
2016-06-18T10:34:13.665Z,49.68
2016-06-18T10:35:13.060Z,49.19
2016-06-18T10:36:13.094Z,49.39
2016-06-18T10:37:13.128Z,49.77
2016-06-18T10:38:13.148Z,49.49
2016-06-18T10:39:13.792Z,50.16
2016-06-18T10:40:13.202Z,49.97
2016-06-18T10:41:13.236Z,50.43
2016-06-18T10:42:13.256Z,50.23
2016-06-18T10:43:13.915Z,50.71
2016-06-18T10:44:13.324Z,50.62
2016-06-18T10:45:13.345Z,51.2
2016-06-18T10:46:13.379Z,50.43
2016-06-18T10:47:13.398Z,51.07
2016-06-18T10:48:13.432Z,51.17
2016-06-18T10:49:13.451Z,50.79
2016-06-18T10:50:13.487Z,50.98
2016-06-18T10:51:13.521Z,51.37
2016-06-18T10:52:13.541Z,51.17
2016-06-18T10:53:13.575Z,51.17
2016-06-18T10:54:13.594Z,51.17
2016-06-18T10:55:13.629Z,51.17
2016-06-18T10:56:13.663Z,51.37
2016-06-18T10:57:13.683Z,51.75
2016-06-18T10:58:13.717Z,51.75
2016-06-18T10:59:13.752Z,51.75
2016-06-18T11:00:13.772Z,51.53
2016-06-18T11:01:13.806Z,51.92
2016-06-18T11:02:13.825Z,52.31
2016-06-18T11:03:13.860Z,52.33
2016-06-18T11:04:13.894Z,52.23
2016-06-18T11:05:13.914Z,51.82
2016-06-18T11:06:13.964Z,51.73
2016-06-18T11:07:13.983Z,51.85
2016-06-18T11:08:14.002Z,51.85
2016-06-18T11:09:14.021Z,51.85
2016-06-18T11:10:14.056Z,51.75
2016-06-18T11:11:14.090Z,52.23
2016-06-18T11:12:14.110Z,52.89
2016-06-18T11:13:14.144Z,52.79
2016-06-18T11:14:14.162Z,52.89
2016-06-18T11:15:14.198Z,53.27
2016-06-18T11:16:14.232Z,53.08
2016-06-18T11:17:14.252Z,52.98
2016-06-18T11:18:14.287Z,52.98
2016-06-18T11:19:14.305Z,52.69
2016-06-18T11:20:14.371Z,52.98
2016-06-18T11:21:14.375Z,52.01
2016-06-18T11:22:14.410Z,52.59
2016-06-18T11:23:14.412Z,51.65
2016-06-18T11:24:14.448Z,51.95
2016-06-18T11:25:14.480Z,51.65
2016-06-18T11:26:14.516Z,51.75
2016-06-18T11:27:14.534Z,52.14
2016-06-18T11:28:14.569Z,51.37
2016-06-18T11:29:14.604Z,51.37
2016-06-18T11:30:15.279Z,51.37
2016-06-18T11:31:14.642Z,51.46
2016-06-18T11:32:14.677Z,51.17
2016-06-18T11:33:14.712Z,51.17
2016-06-18T11:34:14.730Z,51.07
2016-06-18T11:41:16.557Z,51.17
2016-06-18T11:42:16.576Z,51.27
2016-06-18T11:43:16.611Z,51.27
2016-06-18T11:44:16.647Z,51.46
2016-06-18T11:45:16.665Z,51.27
2016-06-18T11:46:17.324Z,51.07
2016-06-18T11:47:16.736Z,51.17
2016-06-18T11:48:16.753Z,51.1
2016-06-18T11:49:16.789Z,50.23
2016-06-18T11:50:16.807Z,50.91
2016-06-18T11:51:16.842Z,50.43
2016-06-18T11:52:16.862Z,50.43
2016-06-18T11:53:17.521Z,50.52
2016-06-18T11:54:16.932Z,50.71
2016-06-18T11:55:16.950Z,50.43
2016-06-18T11:56:17.595Z,50.52
2016-06-18T11:57:17.020Z,51.01
2016-06-18T11:58:17.039Z,51.27
2016-06-18T11:59:17.060Z,51.75
2016-06-18T12:00:17.095Z,52.43
2016-06-18T12:01:17.131Z,52.21
2016-06-18T12:02:17.151Z,52.4
2016-06-18T12:03:17.186Z,52.79
2016-06-18T12:04:17.207Z,52.69
2016-06-18T12:05:17.241Z,52.5
2016-06-18T12:06:17.261Z,52.69
2016-06-18T12:07:17.296Z,52.79
2016-06-18T12:08:17.331Z,52.69
2016-06-18T12:09:17.350Z,53.27
2016-06-18T12:10:17.401Z,52.89
2016-06-18T12:11:17.404Z,52.79
2016-06-18T12:12:17.439Z,53.37
2016-06-18T12:13:17.489Z,52.98
2016-06-18T12:14:17.492Z,53.27
2016-06-18T12:15:17.527Z,53.08
2016-06-18T12:16:18.187Z,52.79
2016-06-18T12:17:17.581Z,52.5
2016-06-18T12:18:17.617Z,52.69
2016-06-18T12:19:18.261Z,52.69
2016-06-18T12:20:18.312Z,52.69
2016-06-18T12:21:17.722Z,52.89
2016-06-18T12:22:17.725Z,52.79
2016-06-18T12:23:17.759Z,52.89
2016-06-18T12:24:17.795Z,52.69
2016-06-18T12:25:17.814Z,52.59
2016-06-18T12:26:18.458Z,52.59
2016-06-18T12:27:17.867Z,53.17
2016-06-18T12:28:17.887Z,53.27
2016-06-18T12:29:17.938Z,53.27
2016-06-18T12:30:17.956Z,53.66
2016-06-18T12:31:18.600Z,53.47
2016-06-18T12:32:18.009Z,53.47
2016-06-18T12:33:18.654Z,53.75
2016-06-18T12:34:18.094Z,53.85
2016-06-18T12:35:18.723Z,54.02
2016-06-18T12:36:18.118Z,54.02
2016-06-18T12:37:18.761Z,53.83
2016-06-18T12:38:18.172Z,54.4
2016-06-18T12:39:18.206Z,54.6
2016-06-18T12:40:18.226Z,54.5
2016-06-18T12:41:18.885Z,54.31
2016-06-18T12:42:18.903Z,54.5
2016-06-18T12:43:18.939Z,54.69
2016-06-18T12:44:18.958Z,54.69
2016-06-18T12:45:19.008Z,54.79
2016-06-18T12:46:19.027Z,54.6
2016-06-18T12:47:19.046Z,54.6
2016-06-18T12:48:19.081Z,54.79
2016-06-18T12:49:19.100Z,54.79
2016-06-18T12:50:19.135Z,55.08
2016-06-18T12:51:18.545Z,54.98
2016-06-18T12:52:19.189Z,54.6
2016-06-18T12:53:19.209Z,55.18
2016-06-18T12:54:19.243Z,54.88
2016-06-18T12:55:18.654Z,54.31
2016-06-18T12:56:19.314Z,54.4
2016-06-18T12:57:18.724Z,54.11
2016-06-18T12:58:19.368Z,53.73
2016-06-18T12:59:19.386Z,54.02
2016-06-18T13:00:19.422Z,54.14
2016-06-18T13:01:19.456Z,53.75
2016-06-18T13:02:19.475Z,53.47
2016-06-18T13:03:19.510Z,53.47
2016-06-18T13:04:18.919Z,53.47
2016-06-18T13:05:19.564Z,53.08